Time;durP1;ratioP1;P1;durP2;ratioP2;P2;SDS_P1;SDS_P2;PMS_P1;PMS_P2;Temp;Humidity;BMP_temperature;BMP_pressure;BME280_temperature;BME280_humidity;BME280_pressure;Samples;Min_cycle;Max_cycle;Signal;HPM_P1;HPM_P2
2023/09/27 00:00:29;;;;;;;6.03;2.70;;;;;;;;;;5039106;28;20276;-64
2023/09/27 00:02:55;;;;;;;8.75;3.05;;;;;;;;;;5036090;28;20025;-64
2023/09/27 00:05:21;;;;;;;5.65;2.67;;;;;;;;;;5031201;28;20037;-65
2023/09/27 00:07:46;;;;;;;8.00;2.92;;;;;;;;;;5024832;28;20060;-64
2023/09/27 00:10:11;;;;;;;6.00;2.75;;;;;;;;;;5029264;28;20029;-63
2023/09/27 00:12:37;;;;;;;7.22;2.90;;;;;;;;;;5007906;28;20040;-63
2023/09/27 00:15:04;;;;;;;6.47;2.75;;;;;;;;;;5042265;28;20033;-63
2023/09/27 00:17:30;;;;;;;6.15;2.80;;;;;;;;;;5039779;28;20050;-64
2023/09/27 00:19:55;;;;;;;5.88;3.00;;;;;;;;;;5048670;28;20458;-61
2023/09/27 00:22:21;;;;;;;6.23;2.87;;;;;;;;;;5027216;28;20032;-64
2023/09/27 00:24:46;;;;;;;6.80;2.60;;;;;;;;;;5056904;28;20624;-63
2023/09/27 00:27:11;;;;;;;9.20;3.30;;;;;;;;;;5045051;28;20482;-64
2023/09/27 00:29:37;;;;;;;9.75;2.80;;;;;;;;;;5048224;28;20117;-62
2023/09/27 00:32:02;;;;;;;8.63;2.70;;;;;;;;;;5021772;28;20026;-64
2023/09/27 00:34:27;;;;;;;6.30;2.53;;;;;;;;;;5023081;28;20043;-63
2023/09/27 00:36:53;;;;;;;8.93;2.95;;;;;;;;;;5024588;28;20128;-62
2023/09/27 00:39:18;;;;;;;7.88;2.92;;;;;;;;;;5035462;28;20465;-62
2023/09/27 00:41:43;;;;;;;7.70;2.63;;;;;;;;;;5035873;28;20025;-62
2023/09/27 00:44:09;;;;;;;6.67;2.80;;;;;;;;;;5030810;28;20353;-62
2023/09/27 00:46:34;;;;;;;6.22;2.70;;;;;;;;;;5033943;28;20268;-62
2023/09/27 00:48:59;;;;;;;8.07;2.55;;;;;;;;;;5023140;28;20034;-63
2023/09/27 00:51:25;;;;;;;8.18;2.80;;;;;;;;;;5051483;28;20162;-63
2023/09/27 00:53:50;;;;;;;7.63;3.13;;;;;;;;;;5045541;28;20108;-63
2023/09/27 00:56:16;;;;;;;7.68;3.13;;;;;;;;;;5032466;28;20065;-62
2023/09/27 00:58:41;;;;;;;5.65;2.60;;;;;;;;;;5042273;28;20044;-61
2023/09/27 01:01:06;;;;;;;5.93;2.70;;;;;;;;;;5029320;28;20037;-64
2023/09/27 01:03:32;;;;;;;4.72;2.50;;;;;;;;;;5022926;28;20113;-64
2023/09/27 01:05:57;;;;;;;9.55;2.97;;;;;;;;;;5039034;28;20073;-65
2023/09/27 01:08:22;;;;;;;6.90;3.40;;;;;;;;;;5040816;28;20557;-64
2023/09/27 01:10:47;;;;;;;8.77;2.80;;;;;;;;;;5035539;28;20279;-63
2023/09/27 01:13:13;;;;;;;9.82;2.83;;;;;;;;;;5055749;28;20326;-63
2023/09/27 01:15:38;;;;;;;8.63;2.87;;;;;;;;;;5032092;28;20041;-63
2023/09/27 01:18:03;;;;;;;9.75;2.90;;;;;;;;;;5022906;28;20296;-63
2023/09/27 01:20:29;;;;;;;6.70;3.25;;;;;;;;;;5037514;28;20040;-63
2023/09/27 01:23:01;;;;;;;6.07;2.78;;;;;;;;;;5050119;28;20458;-63
2023/09/27 01:25:30;;;;;;;9.00;3.47;;;;;;;;;;5039116;28;20056;-64
2023/09/27 01:27:58;;;;;;;7.53;2.97;;;;;;;;;;5026316;28;20465;-64
2023/09/27 01:30:25;;;;;;;6.25;3.00;;;;;;;;;;5040995;28;20057;-63
2023/09/27 01:32:50;;;;;;;6.70;3.00;;;;;;;;;;5036086;28;20071;-64
2023/09/27 01:35:16;;;;;;;7.43;3.13;;;;;;;;;;5024693;28;20041;-63
2023/09/27 01:37:41;;;;;;;8.25;3.10;;;;;;;;;;5039382;28;20128;-63
2023/09/27 01:40:09;;;;;;;7.90;3.20;;;;;;;;;;5031280;28;20026;-63
2023/09/27 01:42:37;;;;;;;11.20;3.08;;;;;;;;;;5033168;28;20037;-63
2023/09/27 01:45:04;;;;;;;8.15;3.08;;;;;;;;;;5017713;28;20025;-63
2023/09/27 01:47:29;;;;;;;7.82;3.72;;;;;;;;;;5026461;28;20033;-63
2023/09/27 01:49:54;;;;;;;6.28;3.05;;;;;;;;;;5027179;28;20073;-61
2023/09/27 01:52:20;;;;;;;7.18;3.00;;;;;;;;;;5025780;28;20033;-62
2023/09/27 01:54:45;;;;;;;9.45;3.40;;;;;;;;;;5042640;28;20040;-62
2023/09/27 01:57:10;;;;;;;6.97;3.07;;;;;;;;;;5026111;28;20045;-62
2023/09/27 01:59:36;;;;;;;8.55;3.00;;;;;;;;;;5028698;28;20334;-62
2023/09/27 02:02:01;;;;;;;5.57;3.03;;;;;;;;;;5033907;28;20029;-61
2023/09/27 02:04:26;;;;;;;11.43;3.00;;;;;;;;;;5028734;28;20373;-62
2023/09/27 02:06:51;;;;;;;9.50;3.10;;;;;;;;;;5024758;28;20398;-61
2023/09/27 02:09:17;;;;;;;10.63;3.35;;;;;;;;;;5045361;28;20345;-63
2023/09/27 02:11:42;;;;;;;7.73;3.23;;;;;;;;;;5024899;28;20486;-63
2023/09/27 02:14:07;;;;;;;7.60;3.42;;;;;;;;;;5029760;28;20361;-64
2023/09/27 02:16:33;;;;;;;7.97;3.33;;;;;;;;;;5042231;28;20681;-63
2023/09/27 02:18:58;;;;;;;7.82;3.15;;;;;;;;;;5045269;28;20275;-64
2023/09/27 02:21:23;;;;;;;6.20;3.17;;;;;;;;;;5034535;28;20116;-64
2023/09/27 02:23:49;;;;;;;6.78;3.20;;;;;;;;;;5031687;28;21123;-64
2023/09/27 02:26:14;;;;;;;7.95;3.38;;;;;;;;;;5043022;28;20052;-64
2023/09/27 02:28:39;;;;;;;10.27;3.40;;;;;;;;;;5029309;28;20038;-64
2023/09/27 02:31:08;;;;;;;9.80;3.53;;;;;;;;;;5026641;28;20465;-64
2023/09/27 02:33:34;;;;;;;8.30;2.90;;;;;;;;;;5026438;28;20037;-63
2023/09/27 02:35:59;;;;;;;9.43;3.17;;;;;;;;;;5043537;28;20026;-64
2023/09/27 02:38:25;;;;;;;8.73;3.23;;;;;;;;;;5025771;28;20030;-64
2023/09/27 02:40:51;;;;;;;7.13;3.28;;;;;;;;;;5024845;28;20337;-64
2023/09/27 02:43:16;;;;;;;8.35;3.58;;;;;;;;;;5039886;28;20045;-64
2023/09/27 02:45:42;;;;;;;8.80;3.10;;;;;;;;;;5025131;28;20130;-64
2023/09/27 02:48:07;;;;;;;8.27;3.10;;;;;;;;;;5024877;28;20044;-64
2023/09/27 02:50:33;;;;;;;6.28;2.90;;;;;;;;;;5027374;28;20605;-64
2023/09/27 02:52:58;;;;;;;9.45;3.35;;;;;;;;;;5026193;28;20033;-65
2023/09/27 02:55:23;;;;;;;10.18;3.25;;;;;;;;;;5026978;28;20038;-64
2023/09/27 02:57:50;;;;;;;9.43;3.85;;;;;;;;;;5026115;28;20053;-64
2023/09/27 03:00:16;;;;;;;6.65;2.92;;;;;;;;;;5025944;28;20033;-64
2023/09/27 03:02:41;;;;;;;9.10;3.40;;;;;;;;;;5041031;28;20554;-64
2023/09/27 03:05:07;;;;;;;8.30;3.05;;;;;;;;;;5042504;28;20033;-64
2023/09/27 03:07:38;;;;;;;6.50;3.20;;;;;;;;;;5029346;28;20289;-65
2023/09/27 03:10:04;;;;;;;6.63;3.40;;;;;;;;;;5025914;28;20065;-64
2023/09/27 03:12:33;;;;;;;8.50;3.38;;;;;;;;;;5047345;28;20056;-63
2023/09/27 03:14:58;;;;;;;8.57;3.20;;;;;;;;;;5031677;28;20525;-64
2023/09/27 03:17:23;;;;;;;7.50;3.17;;;;;;;;;;5027867;28;20052;-63
2023/09/27 03:19:49;;;;;;;7.93;3.37;;;;;;;;;;5025814;28;20304;-64
2023/09/27 03:22:14;;;;;;;8.27;2.95;;;;;;;;;;5041075;28;20287;-64
2023/09/27 03:24:39;;;;;;;8.23;3.10;;;;;;;;;;5023832;28;20402;-64
2023/09/27 03:27:05;;;;;;;8.48;3.50;;;;;;;;;;5024466;28;20128;-63
2023/09/27 03:29:30;;;;;;;10.07;3.43;;;;;;;;;;5040566;28;20040;-64
2023/09/27 03:31:55;;;;;;;6.90;3.05;;;;;;;;;;5045650;28;20775;-64
2023/09/27 03:34:21;;;;;;;6.15;2.72;;;;;;;;;;5050923;28;20409;-63
2023/09/27 03:36:48;;;;;;;7.15;2.97;;;;;;;;;;5025222;28;20041;-63
2023/09/27 03:39:14;;;;;;;5.43;2.78;;;;;;;;;;5022984;28;20056;-64
2023/09/27 03:41:39;;;;;;;7.57;3.45;;;;;;;;;;5025796;28;20460;-64
2023/09/27 03:44:05;;;;;;;9.55;3.15;;;;;;;;;;5007635;28;20382;-63
2023/09/27 03:46:30;;;;;;;11.43;3.13;;;;;;;;;;5025323;28;20528;-63
2023/09/27 03:48:56;;;;;;;6.97;2.90;;;;;;;;;;5024725;28;20038;-64
2023/09/27 03:51:24;;;;;;;8.68;3.20;;;;;;;;;;5040440;28;20036;-63
2023/09/27 03:53:49;;;;;;;7.82;3.28;;;;;;;;;;5025238;28;20504;-64
2023/09/27 03:56:14;;;;;;;10.00;3.45;;;;;;;;;;5040312;28;20033;-64
2023/09/27 03:58:40;;;;;;;10.60;3.63;;;;;;;;;;5023844;28;20111;-65
2023/09/27 04:01:05;;;;;;;8.20;3.60;;;;;;;;;;5024966;28;20278;-63
2023/09/27 04:03:30;;;;;;;6.13;2.90;;;;;;;;;;5023422;28;20099;-63
2023/09/27 04:05:56;;;;;;;6.18;3.30;;;;;;;;;;5039108;28;20269;-64
2023/09/27 04:08:21;;;;;;;10.02;3.35;;;;;;;;;;5024888;28;20041;-64
2023/09/27 04:10:47;;;;;;;8.40;4.07;;;;;;;;;;5048526;28;20045;-63
2023/09/27 04:13:12;;;;;;;6.70;3.55;;;;;;;;;;5042193;28;20134;-66
2023/09/27 04:15:37;;;;;;;9.05;3.42;;;;;;;;;;5023575;28;20084;-69
2023/09/27 04:18:03;;;;;;;10.07;3.40;;;;;;;;;;5024214;28;20037;-67
2023/09/27 04:20:28;;;;;;;6.32;3.00;;;;;;;;;;5024870;28;20292;-65
2023/09/27 04:22:54;;;;;;;7.93;3.67;;;;;;;;;;5023116;28;20493;-66
2023/09/27 04:25:20;;;;;;;6.35;3.10;;;;;;;;;;5029806;28;20038;-65
2023/09/27 04:27:46;;;;;;;9.82;3.33;;;;;;;;;;5022675;28;20065;-65
2023/09/27 04:30:12;;;;;;;6.32;3.17;;;;;;;;;;5025126;28;20084;-65
2023/09/27 04:32:41;;;;;;;8.73;3.50;;;;;;;;;;5033515;28;20037;-65
2023/09/27 04:35:08;;;;;;;9.05;3.15;;;;;;;;;;5045789;28;20029;-65
2023/09/27 04:37:33;;;;;;;6.82;3.13;;;;;;;;;;5022453;28;20502;-65
2023/09/27 04:39:59;;;;;;;10.55;3.30;;;;;;;;;;5043463;28;20018;-67
2023/09/27 04:42:24;;;;;;;8.18;3.40;;;;;;;;;;5039952;28;20697;-65
2023/09/27 04:44:50;;;;;;;7.60;3.47;;;;;;;;;;5024284;28;20026;-65
2023/09/27 04:47:15;;;;;;;6.25;3.60;;;;;;;;;;5039136;28;20026;-65
2023/09/27 04:49:40;;;;;;;7.05;3.45;;;;;;;;;;5039689;28;20031;-65
2023/09/27 04:52:05;;;;;;;12.68;3.80;;;;;;;;;;5027196;28;20021;-65
2023/09/27 04:54:31;;;;;;;8.20;3.13;;;;;;;;;;5038571;28;20108;-66
2023/09/27 04:56:57;;;;;;;8.60;2.58;;;;;;;;;;5040151;28;20803;-66
2023/09/27 04:59:22;;;;;;;8.77;3.00;;;;;;;;;;5051421;28;20093;-66
2023/09/27 05:01:47;;;;;;;7.13;3.15;;;;;;;;;;5040388;28;20537;-66
2023/09/27 05:04:13;;;;;;;9.27;2.80;;;;;;;;;;5023595;28;20963;-66
2023/09/27 05:06:38;;;;;;;8.30;3.17;;;;;;;;;;5024047;28;20018;-67
2023/09/27 05:09:05;;;;;;;10.18;3.22;;;;;;;;;;5026594;28;20017;-67
2023/09/27 05:11:31;;;;;;;8.85;3.58;;;;;;;;;;5023730;28;20025;-67
2023/09/27 05:13:56;;;;;;;7.10;3.25;;;;;;;;;;5027411;28;20493;-66
2023/09/27 05:16:21;;;;;;;11.70;3.22;;;;;;;;;;5024518;28;20034;-67
2023/09/27 05:18:46;;;;;;;8.38;3.47;;;;;;;;;;5026898;28;20018;-66
2023/09/27 05:21:12;;;;;;;9.00;3.30;;;;;;;;;;5048922;28;20029;-67
2023/09/27 05:23:37;;;;;;;6.32;3.10;;;;;;;;;;5046561;28;20320;-63
2023/09/27 05:26:02;;;;;;;8.67;3.23;;;;;;;;;;5030641;28;20018;-64
2023/09/27 05:28:28;;;;;;;9.40;3.63;;;;;;;;;;5037227;28;20316;-64
2023/09/27 05:30:53;;;;;;;10.00;3.70;;;;;;;;;;5026314;28;20025;-66
2023/09/27 05:33:19;;;;;;;6.90;3.20;;;;;;;;;;5054663;28;20025;-64
2023/09/27 05:35:44;;;;;;;7.55;3.63;;;;;;;;;;5049079;28;20483;-65
2023/09/27 05:38:10;;;;;;;9.95;3.40;;;;;;;;;;5046997;28;20029;-65
2023/09/27 05:40:35;;;;;;;8.73;3.77;;;;;;;;;;5016924;28;20663;-65
2023/09/27 05:43:01;;;;;;;11.45;3.55;;;;;;;;;;5035462;28;20268;-61
2023/09/27 05:45:26;;;;;;;10.63;3.50;;;;;;;;;;5034273;28;20018;-61
2023/09/27 05:47:52;;;;;;;9.93;3.67;;;;;;;;;;5019030;28;20184;-62
2023/09/27 05:50:17;;;;;;;11.02;3.65;;;;;;;;;;5018379;28;20125;-62
2023/09/27 05:52:44;;;;;;;10.70;4.03;;;;;;;;;;5018917;28;20478;-60
2023/09/27 05:55:10;;;;;;;8.52;3.85;;;;;;;;;;5018270;28;20486;-61
2023/09/27 05:57:35;;;;;;;12.10;3.83;;;;;;;;;;5016499;28;20076;-65
2023/09/27 06:00:03;;;;;;;8.52;4.00;;;;;;;;;;5019827;28;22199;-62
2023/09/27 06:02:31;;;;;;;10.48;3.13;;;;;;;;;;5027603;28;20037;-62
2023/09/27 06:04:57;;;;;;;12.38;3.97;;;;;;;;;;4998353;28;20037;-68
2023/09/27 06:07:22;;;;;;;8.40;3.28;;;;;;;;;;5035173;28;20648;-63
2023/09/27 06:09:48;;;;;;;8.23;3.65;;;;;;;;;;5018452;28;20071;-63
2023/09/27 06:12:14;;;;;;;9.23;3.78;;;;;;;;;;5018354;28;20040;-63
2023/09/27 06:14:41;;;;;;;12.20;4.05;;;;;;;;;;5019747;28;20056;-64
2023/09/27 06:17:07;;;;;;;9.40;3.80;;;;;;;;;;5026268;28;20099;-62
2023/09/27 06:19:32;;;;;;;8.45;3.53;;;;;;;;;;5017786;28;20462;-62
2023/09/27 06:22:00;;;;;;;8.05;3.20;;;;;;;;;;5020566;22;20033;-61
2023/09/27 06:24:26;;;;;;;9.77;3.58;;;;;;;;;;5019185;28;20484;-60
2023/09/27 06:26:51;;;;;;;7.18;3.35;;;;;;;;;;5035983;28;20045;-61
2023/09/27 06:29:19;;;;;;;8.60;3.28;;;;;;;;;;5017937;28;20112;-60
2023/09/27 06:31:45;;;;;;;6.53;3.28;;;;;;;;;;5013253;28;20060;-57
2023/09/27 06:34:10;;;;;;;9.52;3.13;;;;;;;;;;5031395;28;20145;-65
2023/09/27 06:36:36;;;;;;;11.32;3.13;;;;;;;;;;5013740;28;20491;-61
2023/09/27 06:39:01;;;;;;;10.77;3.22;;;;;;;;;;5012714;28;20102;-59
2023/09/27 06:41:26;;;;;;;8.32;3.22;;;;;;;;;;5030090;22;20674;-64
2023/09/27 06:43:53;;;;;;;10.85;3.70;;;;;;;;;;5028952;28;20034;-65
2023/09/27 06:46:19;;;;;;;6.90;3.05;;;;;;;;;;5029352;28;20036;-65
2023/09/27 06:48:44;;;;;;;13.15;3.55;;;;;;;;;;5024398;28;20052;-62
2023/09/27 06:51:11;;;;;;;8.68;3.47;;;;;;;;;;5031867;28;20105;-61
2023/09/27 06:53:37;;;;;;;8.55;3.17;;;;;;;;;;5030778;28;20044;-62
2023/09/27 06:56:02;;;;;;;10.65;3.22;;;;;;;;;;5031300;28;20037;-62
2023/09/27 06:58:27;;;;;;;10.50;3.47;;;;;;;;;;5029430;28;20137;-62
2023/09/27 07:00:53;;;;;;;8.82;3.45;;;;;;;;;;5030462;28;20040;-63
2023/09/27 07:03:24;;;;;;;9.93;4.00;;;;;;;;;;5034577;28;20036;-64
2023/09/27 07:05:51;;;;;;;7.68;3.53;;;;;;;;;;5035018;28;20029;-63
2023/09/27 07:08:16;;;;;;;12.63;3.20;;;;;;;;;;5031251;28;20040;-63
2023/09/27 07:10:42;;;;;;;6.90;3.42;;;;;;;;;;5029748;28;20037;-62
2023/09/27 07:13:07;;;;;;;13.13;4.53;;;;;;;;;;5029024;28;20055;-63
2023/09/27 07:15:32;;;;;;;7.50;3.53;;;;;;;;;;5028467;28;20103;-64
2023/09/27 07:17:58;;;;;;;7.00;3.40;;;;;;;;;;5028464;28;20102;-64
2023/09/27 07:20:45;;;;;;;7.50;3.13;;;;;;;;;;5028676;28;20609;-63
2023/09/27 07:23:14;;;;;;;6.57;2.80;;;;;;;;;;5028523;28;20131;-63
2023/09/27 07:25:40;;;;;;;9.27;3.60;;;;;;;;;;5029201;28;20474;-64
2023/09/27 07:28:05;;;;;;;7.70;3.25;;;;;;;;;;5029851;28;20218;-63
2023/09/27 07:30:33;;;;;;;6.97;3.38;;;;;;;;;;5030333;28;20041;-64
2023/09/27 07:32:58;;;;;;;10.25;3.38;;;;;;;;;;5029201;28;20030;-63
2023/09/27 07:35:27;;;;;;;8.00;3.22;;;;;;;;;;5029221;28;20106;-63
2023/09/27 07:37:52;;;;;;;8.18;3.25;;;;;;;;;;5029555;28;20057;-64
2023/09/27 07:40:17;;;;;;;7.50;3.33;;;;;;;;;;5028730;28;20048;-64
2023/09/27 07:42:43;;;;;;;6.10;3.00;;;;;;;;;;5031554;28;20048;-64
2023/09/27 07:45:20;;;;;;;7.43;3.10;;;;;;;;;;5036393;22;20320;-65
2023/09/27 07:47:46;;;;;;;5.57;3.13;;;;;;;;;;5003994;28;20041;-63
2023/09/27 07:50:11;;;;;;;8.30;3.13;;;;;;;;;;5008732;28;20041;-63
2023/09/27 07:52:37;;;;;;;6.30;3.25;;;;;;;;;;5000527;28;20530;-64
2023/09/27 07:55:04;;;;;;;7.35;2.80;;;;;;;;;;5019575;28;20038;-63
2023/09/27 07:57:29;;;;;;;8.70;3.00;;;;;;;;;;5020895;28;20072;-63
2023/09/27 07:59:55;;;;;;;9.10;3.15;;;;;;;;;;5014653;28;20505;-64
2023/09/27 08:02:21;;;;;;;7.18;2.80;;;;;;;;;;5014570;28;20094;-64
2023/09/27 08:04:48;;;;;;;8.65;3.15;;;;;;;;;;5044167;22;20079;-62
2023/09/27 08:07:13;;;;;;;7.80;3.03;;;;;;;;;;5030844;28;20049;-66
2023/09/27 08:09:38;;;;;;;7.10;2.78;;;;;;;;;;5029417;28;20052;-63
2023/09/27 08:12:05;;;;;;;6.43;2.85;;;;;;;;;;5034339;28;20497;-63
2023/09/27 08:14:31;;;;;;;9.40;3.20;;;;;;;;;;5033261;28;20041;-61
2023/09/27 08:16:56;;;;;;;6.70;3.10;;;;;;;;;;5041024;28;20523;-65
2023/09/27 08:19:21;;;;;;;9.25;3.20;;;;;;;;;;5035122;28;20033;-62
2023/09/27 08:21:46;;;;;;;12.73;3.35;;;;;;;;;;5030035;28;20482;-61
2023/09/27 08:24:12;;;;;;;9.67;2.97;;;;;;;;;;5029359;28;20040;-63
2023/09/27 08:26:37;;;;;;;7.60;3.10;;;;;;;;;;5034331;28;20291;-63
2023/09/27 08:29:03;;;;;;;8.90;3.00;;;;;;;;;;5038592;28;20126;-62
2023/09/27 08:31:31;;;;;;;7.45;3.05;;;;;;;;;;5047350;28;20041;-64
2023/09/27 08:33:56;;;;;;;9.05;2.97;;;;;;;;;;5033170;28;20036;-62
2023/09/27 08:36:21;;;;;;;10.63;2.80;;;;;;;;;;5038461;28;20033;-66
2023/09/27 08:38:46;;;;;;;9.20;3.00;;;;;;;;;;5034818;28;20387;-63
2023/09/27 08:41:12;;;;;;;8.50;3.10;;;;;;;;;;5034187;28;20680;-63
2023/09/27 08:43:37;;;;;;;8.13;3.00;;;;;;;;;;5033831;28;20287;-63
2023/09/27 08:46:03;;;;;;;9.47;2.87;;;;;;;;;;5032966;28;20515;-65
2023/09/27 08:48:28;;;;;;;8.23;2.92;;;;;;;;;;5031893;28;20325;-62
2023/09/27 08:50:55;;;;;;;8.93;3.03;;;;;;;;;;5032709;28;20524;-63
2023/09/27 08:53:20;;;;;;;7.38;2.83;;;;;;;;;;5038908;28;20310;-63
2023/09/27 08:55:47;;;;;;;7.47;2.60;;;;;;;;;;5039479;28;20490;-62
2023/09/27 08:58:12;;;;;;;9.18;3.03;;;;;;;;;;5042870;28;20052;-63
2023/09/27 09:00:41;;;;;;;5.82;2.50;;;;;;;;;;5047643;28;20041;-62
2023/09/27 09:03:06;;;;;;;5.38;2.58;;;;;;;;;;5031287;28;20063;-62
2023/09/27 09:05:32;;;;;;;9.70;3.50;;;;;;;;;;5030432;28;20147;-63
2023/09/27 09:07:57;;;;;;;11.68;5.20;;;;;;;;;;5020082;28;20037;-66
2023/09/27 09:10:22;;;;;;;13.82;7.70;;;;;;;;;;5019134;28;20482;-63
2023/09/27 09:12:48;;;;;;;11.93;7.00;;;;;;;;;;5019270;28;20040;-64
2023/09/27 09:15:35;;;;;;;9.90;5.95;;;;;;;;;;5030441;28;20041;-66
2023/09/27 09:18:06;;;;;;;13.02;4.65;;;;;;;;;;5033207;28;20053;-64
2023/09/27 09:20:48;;;;;;;8.90;4.32;;;;;;;;;;5019860;28;20424;-64
2023/09/27 09:23:26;;;;;;;8.27;3.22;;;;;;;;;;5028640;28;20045;-64
2023/09/27 09:25:51;;;;;;;8.65;3.22;;;;;;;;;;5018972;28;20048;-66
2023/09/27 09:28:17;;;;;;;8.27;2.80;;;;;;;;;;5030964;28;20034;-66
2023/09/27 09:30:44;;;;;;;7.23;3.30;;;;;;;;;;5034257;28;20041;-64
2023/09/27 09:33:15;;;;;;;5.70;3.10;;;;;;;;;;5028774;28;20390;-61
2023/09/27 09:35:40;;;;;;;7.28;2.97;;;;;;;;;;5012900;28;20037;-63
2023/09/27 09:38:06;;;;;;;9.35;3.03;;;;;;;;;;5030583;28;20367;-62
2023/09/27 09:40:31;;;;;;;7.18;3.58;;;;;;;;;;5029291;28;20051;-64
2023/09/27 09:42:57;;;;;;;6.57;3.13;;;;;;;;;;5030422;28;20041;-63
2023/09/27 09:45:22;;;;;;;9.18;3.47;;;;;;;;;;5029882;28;20057;-62
2023/09/27 09:47:47;;;;;;;5.70;3.15;;;;;;;;;;5034115;28;20045;-61
2023/09/27 09:50:19;;;;;;;7.03;3.20;;;;;;;;;;5033336;28;20121;-62
2023/09/27 09:52:50;;;;;;;6.28;2.83;;;;;;;;;;5029899;28;20291;-60
2023/09/27 09:55:19;;;;;;;8.55;2.92;;;;;;;;;;5032268;28;20052;-63
2023/09/27 09:57:44;;;;;;;6.32;3.00;;;;;;;;;;5017933;28;20049;-62
2023/09/27 10:00:17;;;;;;;7.30;3.42;;;;;;;;;;5026960;28;20041;-62
2023/09/27 10:02:49;;;;;;;6.45;2.60;;;;;;;;;;5029244;28;20030;-63
2023/09/27 10:05:17;;;;;;;7.53;3.22;;;;;;;;;;5033503;28;20568;-62
2023/09/27 10:07:43;;;;;;;5.95;3.00;;;;;;;;;;5033800;28;20041;-62
2023/09/27 10:10:09;;;;;;;7.50;3.50;;;;;;;;;;5031298;28;20445;-62
2023/09/27 10:12:34;;;;;;;7.78;3.08;;;;;;;;;;5031935;28;20033;-64
2023/09/27 10:14:59;;;;;;;9.10;3.00;;;;;;;;;;5034373;28;20140;-65
2023/09/27 10:17:26;;;;;;;9.68;3.20;;;;;;;;;;5034002;28;20517;-63
2023/09/27 10:20:12;;;;;;;7.30;3.10;;;;;;;;;;5021317;28;20035;-66
2023/09/27 10:22:37;;;;;;;10.63;3.42;;;;;;;;;;5033167;28;20049;-62
2023/09/27 10:25:03;;;;;;;8.05;3.50;;;;;;;;;;5032478;28;20037;-62
2023/09/27 10:27:51;;;;;;;6.30;3.08;;;;;;;;;;5033881;28;20251;-64
2023/09/27 10:30:16;;;;;;;9.63;3.40;;;;;;;;;;5034246;28;20046;-62
2023/09/27 10:32:41;;;;;;;6.43;3.15;;;;;;;;;;5032651;28;20029;-63
2023/09/27 10:35:17;;;;;;;9.03;3.57;;;;;;;;;;5033687;28;20060;-63
2023/09/27 10:37:58;;;;;;;7.05;2.90;;;;;;;;;;5031541;28;20318;-63
2023/09/27 10:40:23;;;;;;;6.82;2.92;;;;;;;;;;5037856;28;20045;-63
2023/09/27 10:42:49;;;;;;;6.93;3.28;;;;;;;;;;5030509;28;20034;-65
2023/09/27 10:45:15;;;;;;;6.80;2.80;;;;;;;;;;5032210;28;20033;-62
2023/09/27 10:47:40;;;;;;;6.40;3.03;;;;;;;;;;5029957;28;20286;-63
2023/09/27 10:50:05;;;;;;;7.88;2.75;;;;;;;;;;5031435;28;20550;-64
2023/09/27 10:52:31;;;;;;;8.63;3.10;;;;;;;;;;5039099;28;20033;-62
2023/09/27 10:55:07;;;;;;;8.45;3.15;;;;;;;;;;5032706;28;20090;-62
2023/09/27 10:57:32;;;;;;;7.18;2.90;;;;;;;;;;5032051;28;20041;-64
2023/09/27 10:59:58;;;;;;;6.70;2.97;;;;;;;;;;5032141;28;20141;-61
2023/09/27 11:02:29;;;;;;;6.35;2.72;;;;;;;;;;5032283;28;20303;-64
2023/09/27 11:04:55;;;;;;;6.05;2.65;;;;;;;;;;5032494;28;20047;-63
2023/09/27 11:07:20;;;;;;;6.20;2.63;;;;;;;;;;5036005;28;20033;-62
2023/09/27 11:09:48;;;;;;;6.73;2.97;;;;;;;;;;5030304;28;20037;-62
2023/09/27 11:12:13;;;;;;;7.28;2.75;;;;;;;;;;5034318;28;20290;-63
2023/09/27 11:14:42;;;;;;;7.22;3.03;;;;;;;;;;5029871;28;20037;-61
2023/09/27 11:17:17;;;;;;;7.85;3.20;;;;;;;;;;5031026;28;20096;-62
2023/09/27 11:19:43;;;;;;;7.15;3.45;;;;;;;;;;5031087;28;20056;-62
2023/09/27 11:22:08;;;;;;;9.95;2.92;;;;;;;;;;5032562;28;20029;-63
2023/09/27 11:24:38;;;;;;;7.22;3.00;;;;;;;;;;5033122;28;20045;-64
2023/09/27 11:27:03;;;;;;;8.20;3.13;;;;;;;;;;5031644;28;20049;-63
2023/09/27 11:29:29;;;;;;;5.85;2.83;;;;;;;;;;5029494;28;20041;-63
2023/09/27 11:31:56;;;;;;;7.70;3.27;;;;;;;;;;5018358;28;20057;-63
2023/09/27 11:34:21;;;;;;;6.90;2.90;;;;;;;;;;5029888;28;20291;-65
2023/09/27 11:36:48;;;;;;;7.00;2.85;;;;;;;;;;5030331;28;20060;-63
2023/09/27 11:39:13;;;;;;;8.18;3.30;;;;;;;;;;5029356;28;20096;-62
2023/09/27 11:41:39;;;;;;;7.40;2.80;;;;;;;;;;5028741;28;20148;-64
2023/09/27 11:44:17;;;;;;;7.18;2.90;;;;;;;;;;5034351;28;20117;-61
2023/09/27 11:46:43;;;;;;;6.97;3.08;;;;;;;;;;5032764;28;20039;-62
2023/09/27 11:49:08;;;;;;;8.13;3.20;;;;;;;;;;5031243;28;20037;-61
2023/09/27 11:51:35;;;;;;;7.75;2.95;;;;;;;;;;5031865;28;20037;-60
2023/09/27 11:54:00;;;;;;;5.20;2.75;;;;;;;;;;5034459;28;20475;-62
2023/09/27 11:56:26;;;;;;;8.77;3.15;;;;;;;;;;5034621;28;20136;-61
2023/09/27 11:58:51;;;;;;;5.15;2.80;;;;;;;;;;5028500;28;20041;-63
2023/09/27 12:01:17;;;;;;;6.43;3.05;;;;;;;;;;5031565;28;20405;-61
2023/09/27 12:03:42;;;;;;;5.13;2.90;;;;;;;;;;5028561;28;20075;-62
2023/09/27 12:06:07;;;;;;;6.80;3.20;;;;;;;;;;5029548;28;20413;-64
2023/09/27 12:08:33;;;;;;;11.50;3.28;;;;;;;;;;5035609;28;20144;-62
2023/09/27 12:10:59;;;;;;;9.25;3.17;;;;;;;;;;5030721;28;20041;-64
2023/09/27 12:13:24;;;;;;;8.27;3.38;;;;;;;;;;5034278;28;20048;-64
2023/09/27 12:15:50;;;;;;;7.03;3.20;;;;;;;;;;5030610;28;20033;-65
2023/09/27 12:18:15;;;;;;;8.52;3.03;;;;;;;;;;5028927;28;20333;-65
2023/09/27 12:20:40;;;;;;;8.10;3.30;;;;;;;;;;5035181;28;20064;-67
2023/09/27 12:23:06;;;;;;;10.25;3.40;;;;;;;;;;5043423;28;20292;-63
2023/09/27 12:25:32;;;;;;;7.40;3.40;;;;;;;;;;5024740;28;20040;-61
2023/09/27 12:27:57;;;;;;;9.82;3.17;;;;;;;;;;5031964;28;20043;-62
2023/09/27 12:30:23;;;;;;;9.80;3.08;;;;;;;;;;5031447;28;20421;-61
2023/09/27 12:32:49;;;;;;;8.53;3.20;;;;;;;;;;5028536;28;20078;-61
2023/09/27 12:35:14;;;;;;;9.38;3.38;;;;;;;;;;5039159;28;20290;-63
2023/09/27 12:37:39;;;;;;;4.85;2.72;;;;;;;;;;5045039;28;20537;-62
2023/09/27 12:40:05;;;;;;;8.73;3.30;;;;;;;;;;5043089;28;20043;-62
2023/09/27 12:42:31;;;;;;;9.18;3.13;;;;;;;;;;5042097;28;20908;-64
2023/09/27 12:44:56;;;;;;;7.10;2.97;;;;;;;;;;5043840;28;20147;-62
2023/09/27 12:47:21;;;;;;;8.63;3.40;;;;;;;;;;5044302;28;20060;-62
2023/09/27 12:49:47;;;;;;;5.83;2.90;;;;;;;;;;5044482;28;20091;-62
2023/09/27 12:52:13;;;;;;;9.97;3.17;;;;;;;;;;5044481;28;20272;-63
2023/09/27 12:54:38;;;;;;;5.63;3.17;;;;;;;;;;5041875;28;20299;-64
2023/09/27 12:57:03;;;;;;;8.07;3.22;;;;;;;;;;5033484;28;20500;-65
2023/09/27 12:59:29;;;;;;;6.85;3.25;;;;;;;;;;5029403;28;20041;-62
2023/09/27 13:01:54;;;;;;;8.10;3.13;;;;;;;;;;5029927;28;20388;-62
2023/09/27 13:04:19;;;;;;;8.25;3.15;;;;;;;;;;5029015;28;20307;-63
2023/09/27 13:06:45;;;;;;;9.57;3.08;;;;;;;;;;5028260;28;20685;-64
2023/09/27 13:09:10;;;;;;;9.02;3.22;;;;;;;;;;5033949;28;20044;-62
2023/09/27 13:11:35;;;;;;;5.68;2.90;;;;;;;;;;5018458;28;20630;-65
2023/09/27 13:14:01;;;;;;;5.37;2.90;;;;;;;;;;5028406;28;20034;-62
2023/09/27 13:16:26;;;;;;;7.72;3.00;;;;;;;;;;5033799;28;20291;-64
2023/09/27 13:18:51;;;;;;;8.23;3.10;;;;;;;;;;5028181;28;20029;-62
2023/09/27 13:21:17;;;;;;;8.93;3.20;;;;;;;;;;5028946;28;20769;-62
2023/09/27 13:23:42;;;;;;;8.40;3.20;;;;;;;;;;5027881;28;20026;-61
2023/09/27 13:26:08;;;;;;;9.90;3.38;;;;;;;;;;5033246;28;20524;-61
2023/09/27 13:28:34;;;;;;;6.88;3.20;;;;;;;;;;5032205;28;20354;-63
2023/09/27 13:31:01;;;;;;;7.60;3.00;;;;;;;;;;5026438;28;20041;-62
2023/09/27 13:33:27;;;;;;;10.40;3.42;;;;;;;;;;5029285;28;20041;-62
2023/09/27 13:35:53;;;;;;;7.90;3.55;;;;;;;;;;5029191;28;20148;-61
2023/09/27 13:38:18;;;;;;;8.43;3.15;;;;;;;;;;5029407;28;20038;-63
2023/09/27 13:40:44;;;;;;;6.33;3.03;;;;;;;;;;5033977;28;20029;-64
2023/09/27 13:43:09;;;;;;;11.60;3.28;;;;;;;;;;5021352;28;20310;-63
2023/09/27 13:45:35;;;;;;;7.72;3.50;;;;;;;;;;5033729;28;20517;-60
2023/09/27 13:48:00;;;;;;;10.25;3.55;;;;;;;;;;5033420;28;20114;-64
2023/09/27 13:50:26;;;;;;;9.07;3.40;;;;;;;;;;5033154;28;20393;-62
2023/09/27 13:52:51;;;;;;;8.60;3.25;;;;;;;;;;5033583;28;20695;-64
2023/09/27 13:55:17;;;;;;;6.43;3.40;;;;;;;;;;5031357;28;20052;-62
2023/09/27 13:57:43;;;;;;;6.93;3.30;;;;;;;;;;5019465;28;20315;-64
2023/09/27 14:00:08;;;;;;;9.77;3.50;;;;;;;;;;5036292;28;20063;-63
2023/09/27 14:02:36;;;;;;;8.07;3.58;;;;;;;;;;5033419;28;20029;-62
2023/09/27 14:05:03;;;;;;;10.77;3.60;;;;;;;;;;5033408;28;20140;-63
2023/09/27 14:07:28;;;;;;;7.50;2.92;;;;;;;;;;5030898;28;20505;-61
2023/09/27 14:09:53;;;;;;;9.80;3.90;;;;;;;;;;5032896;28;20040;-61
2023/09/27 14:12:21;;;;;;;6.67;3.27;;;;;;;;;;5035690;28;20856;-62
2023/09/27 14:14:47;;;;;;;6.38;3.08;;;;;;;;;;5033062;28;20849;-60
2023/09/27 14:17:12;;;;;;;8.40;3.10;;;;;;;;;;5031593;28;20046;-62
2023/09/27 14:19:38;;;;;;;6.72;3.20;;;;;;;;;;5032728;28;20373;-61
2023/09/27 14:22:04;;;;;;;7.40;3.67;;;;;;;;;;5030919;28;20037;-63
2023/09/27 14:24:32;;;;;;;7.65;3.92;;;;;;;;;;5030931;28;20421;-61
2023/09/27 14:26:58;;;;;;;9.93;3.55;;;;;;;;;;5031191;28;20144;-62
2023/09/27 14:29:23;;;;;;;7.28;3.40;;;;;;;;;;5035279;28;20045;-62
2023/09/27 14:31:48;;;;;;;7.10;3.13;;;;;;;;;;5030846;28;20676;-62
2023/09/27 14:34:14;;;;;;;8.82;3.22;;;;;;;;;;5032140;28;20310;-63